createdAt,value
2022-11-09T00:01:05.669Z,99995.84
2022-11-09T00:02:07.912Z,99993.97
2022-11-09T00:03:10.860Z,99987.69
2022-11-09T00:04:12.833Z,99988.09
2022-11-09T00:05:15.011Z,99988.59
2022-11-09T00:06:17.493Z,99989.00
2022-11-09T00:07:19.619Z,99996.75
2022-11-09T00:08:21.707Z,99992.88
2022-11-09T00:09:25.127Z,99990.97
2022-11-09T00:10:28.031Z,99990.13
2022-11-09T00:11:30.653Z,99985.44
2022-11-09T00:12:32.616Z,99982.38
2022-11-09T00:13:39.619Z,99991.59
2022-11-09T00:14:42.010Z,99991.72
2022-11-09T00:15:43.948Z,99986.94
2022-11-09T00:16:48.705Z,99988.53
2022-11-09T00:17:50.784Z,99981.53
2022-11-09T00:18:53.974Z,99989.47
2022-11-09T00:19:56.186Z,99989.31
2022-11-09T00:20:58.555Z,99984.59
2022-11-09T00:22:00.598Z,99990.97
2022-11-09T00:23:06.191Z,99991.66
2022-11-09T00:24:09.292Z,99986.09
2022-11-09T00:25:11.318Z,99998.44
2022-11-09T00:26:16.731Z,99989.38
2022-11-09T00:27:18.836Z,99994.81
2022-11-09T00:28:22.053Z,100002.03
2022-11-09T00:29:24.180Z,99996.34
2022-11-09T00:30:27.796Z,99997.84
2022-11-09T00:31:29.969Z,99999.56
2022-11-09T00:32:32.382Z,99996.00
2022-11-09T00:33:34.573Z,99997.63
2022-11-09T00:34:36.881Z,100003.47
2022-11-09T00:35:40.444Z,100001.16
2022-11-09T00:36:42.740Z,99995.63
2022-11-09T00:37:46.091Z,99999.44
2022-11-09T00:38:50.790Z,100006.22
2022-11-09T00:39:52.804Z,99997.97
2022-11-09T00:41:02.237Z,100005.06
2022-11-09T00:42:09.611Z,100000.41
2022-11-09T00:43:15.261Z,99996.47
2022-11-09T00:44:18.539Z,100000.97
2022-11-09T00:45:20.603Z,99997.66
2022-11-09T00:46:22.851Z,100006.53
2022-11-09T00:47:30.437Z,100011.22
2022-11-09T00:48:33.378Z,100009.75
2022-11-09T00:49:37.238Z,100007.38
2022-11-09T00:50:39.572Z,100004.78
2022-11-09T00:51:41.585Z,100010.59
2022-11-09T00:52:43.764Z,100011.22
2022-11-09T00:53:48.530Z,100009.69
2022-11-09T00:54:51.882Z,100012.25
2022-11-09T00:55:56.034Z,100012.28
2022-11-09T00:56:58.302Z,100010.53
2022-11-09T00:58:01.726Z,100005.84
2022-11-09T00:59:04.856Z,100009.75
2022-11-09T01:00:08.520Z,100004.94
2022-11-09T01:01:13.706Z,100008.53
2022-11-09T01:02:17.570Z,100010.69
2022-11-09T01:03:20.907Z,100006.03
2022-11-09T01:04:27.229Z,100010.59
2022-11-09T01:05:29.170Z,100019.41
2022-11-09T01:06:33.741Z,100014.50
2022-11-09T01:07:38.460Z,100016.09
2022-11-09T01:08:41.183Z,100018.28
2022-11-09T01:09:44.895Z,100011.41
2022-11-09T01:10:48.614Z,100010.38
2022-11-09T01:11:51.623Z,100011.53
2022-11-09T01:12:57.059Z,100005.34
2022-11-09T01:14:00.785Z,100007.72
2022-11-09T01:15:06.676Z,100017.94
2022-11-09T01:16:13.138Z,100014.84
2022-11-09T01:17:15.874Z,100006.56
2022-11-09T01:18:20.481Z,100007.72
2022-11-09T01:19:22.693Z,100017.06
2022-11-09T01:20:28.071Z,100007.00
2022-11-09T01:21:30.183Z,100013.88
2022-11-09T01:22:36.346Z,100015.28
2022-11-09T01:23:39.614Z,100004.25
2022-11-09T01:24:41.684Z,100017.22
2022-11-09T01:25:45.366Z,100008.69
2022-11-09T01:26:49.501Z,100011.75
2022-11-09T01:27:51.648Z,100012.19
2022-11-09T01:28:55.069Z,100006.25
2022-11-09T01:29:58.374Z,100010.28
2022-11-09T01:31:05.210Z,100014.31
2022-11-09T01:32:08.866Z,100000.94
2022-11-09T01:33:12.359Z,100011.38
2022-11-09T01:34:14.338Z,100013.47
2022-11-09T01:35:17.985Z,100011.44
2022-11-09T01:36:23.007Z,100017.28
2022-11-09T01:37:24.984Z,100017.28
2022-11-09T01:38:27.024Z,100011.31
2022-11-09T01:39:28.976Z,100011.03
2022-11-09T01:40:32.762Z,100011.75
2022-11-09T01:41:34.833Z,100018.06
2022-11-09T01:42:39.955Z,100008.72
2022-11-09T01:43:42.725Z,100008.78
2022-11-09T01:44:44.662Z,100021.53
2022-11-09T01:46:32.187Z,100020.31
2022-11-09T01:47:34.862Z,100014.34
2022-11-09T01:48:47.047Z,100023.91
2022-11-09T01:50:00.398Z,100018.56
2022-11-09T01:51:09.487Z,100022.84
2022-11-09T01:52:32.261Z,100015.06
2022-11-09T01:53:39.598Z,100016.28
2022-11-09T01:54:46.102Z,100016.34
2022-11-09T01:55:55.040Z,100015.19
2022-11-09T01:57:01.475Z,100017.81
2022-11-09T01:58:07.829Z,100023.13
2022-11-09T01:59:14.880Z,100021.53
2022-11-09T02:00:19.901Z,100021.94
2022-11-09T02:01:22.687Z,100020.56
2022-11-09T02:02:25.350Z,100018.06
2022-11-09T02:03:36.547Z,100017.06
2022-11-09T02:04:53.504Z,100019.16
2022-11-09T02:06:01.746Z,100029.38
2022-11-09T02:07:05.250Z,100018.38
2022-11-09T02:08:08.943Z,100024.56
2022-11-09T02:09:23.963Z,100016.28
2022-11-09T02:11:01.469Z,100026.22
2022-11-09T02:12:06.776Z,100030.06
2022-11-09T02:13:12.807Z,100025.28
2022-11-09T02:14:16.070Z,100023.41
2022-11-09T02:15:21.895Z,100023.00
2022-11-09T02:16:26.685Z,100029.25
2022-11-09T02:17:29.933Z,100025.50
2022-11-09T02:18:34.238Z,100025.72
2022-11-09T02:19:37.159Z,100039.56
2022-11-09T02:20:54.524Z,100023.47
2022-11-09T02:21:59.356Z,100029.75
2022-11-09T02:23:01.774Z,100033.28
2022-11-09T02:24:05.301Z,100038.13
2022-11-09T02:25:11.346Z,100034.78
2022-11-09T02:26:30.750Z,100028.00
2022-11-09T02:27:32.802Z,100029.69
2022-11-09T02:28:38.602Z,100034.16
2022-11-09T02:29:48.576Z,100030.97
2022-11-09T02:30:54.710Z,100033.81
2022-11-09T02:32:02.687Z,100041.25
2022-11-09T02:33:05.935Z,100035.25
2022-11-09T02:34:28.350Z,100039.78
2022-11-09T02:35:30.487Z,100037.31
2022-11-09T02:36:32.624Z,100034.25
2022-11-09T02:37:40.614Z,100032.22
2022-11-09T02:38:45.370Z,100035.00
2022-11-09T02:39:50.985Z,100034.88
2022-11-09T02:40:53.337Z,100034.78
2022-11-09T02:42:16.950Z,100034.44
2022-11-09T02:43:23.631Z,100035.72
2022-11-09T02:44:31.710Z,100028.97
2022-11-09T02:45:34.183Z,100031.66
2022-11-09T02:46:40.518Z,100031.56
2022-11-09T02:47:43.983Z,100040.63
2022-11-09T02:48:46.013Z,100032.88
2022-11-09T02:49:48.142Z,100030.75
2022-11-09T02:50:50.220Z,100037.97
2022-11-09T02:51:53.362Z,100036.25
2022-11-09T02:52:55.462Z,100037.84
2022-11-09T02:53:59.560Z,100034.78
2022-11-09T02:55:05.146Z,100033.19
2022-11-09T02:56:08.542Z,100032.88
2022-11-09T02:57:11.016Z,100036.09
2022-11-09T02:58:13.720Z,100030.97
2022-11-09T02:59:16.264Z,100034.53
2022-11-09T03:00:19.818Z,100044.16
2022-11-09T03:01:22.262Z,100050.59
2022-11-09T03:02:25.628Z,100040.19
2022-11-09T03:03:28.419Z,100033.19
2022-11-09T03:04:30.476Z,100036.38
2022-11-09T03:05:32.854Z,100039.56
2022-11-09T03:06:35.638Z,100040.34
2022-11-09T03:07:44.000Z,100047.41
2022-11-09T03:08:46.980Z,100049.72
2022-11-09T03:09:52.512Z,100046.69
2022-11-09T03:10:56.975Z,100053.75
2022-11-09T03:12:20.428Z,100053.75
2022-11-09T03:13:22.753Z,100045.91
2022-11-09T03:14:25.210Z,100049.16
2022-11-09T03:15:32.936Z,100049.22
2022-11-09T03:16:36.285Z,100051.22
2022-11-09T03:17:40.717Z,100042.84
2022-11-09T03:18:42.944Z,100045.31
2022-11-09T03:19:48.230Z,100046.19
2022-11-09T03:20:51.055Z,100048.09
2022-11-09T03:21:54.119Z,100045.31
2022-11-09T03:23:00.171Z,100049.50
2022-11-09T03:24:04.990Z,100042.22
2022-11-09T03:25:10.394Z,100039.78
2022-11-09T03:26:12.924Z,100043.59
2022-11-09T03:27:15.721Z,100047.63
2022-11-09T03:28:19.717Z,100046.91
2022-11-09T03:29:23.290Z,100042.25
2022-11-09T03:30:25.563Z,100044.69
2022-11-09T03:31:28.409Z,100046.56
2022-11-09T03:32:32.008Z,100051.13
2022-11-09T03:33:38.360Z,100045.31
2022-11-09T03:34:41.116Z,100058.72
2022-11-09T03:35:44.392Z,100054.91
2022-11-09T03:36:48.930Z,100051.53
2022-11-09T03:37:52.507Z,100054.75
2022-11-09T03:38:54.907Z,100058.38
2022-11-09T03:39:57.533Z,100058.78
2022-11-09T03:41:01.443Z,100053.31
2022-11-09T03:42:04.719Z,100050.75
2022-11-09T03:43:08.970Z,100055.25
2022-11-09T03:44:11.137Z,100061.19
2022-11-09T03:45:14.482Z,100063.59
2022-11-09T03:46:16.513Z,100062.69
2022-11-09T03:47:18.507Z,100062.03
2022-11-09T03:48:20.565Z,100054.84
2022-11-09T03:49:24.010Z,100060.38
2022-11-09T03:50:30.939Z,100065.56
2022-11-09T03:51:33.351Z,100071.34
2022-11-09T03:52:35.942Z,100064.69
2022-11-09T03:53:38.344Z,100070.38
2022-11-09T03:54:43.402Z,100068.31
2022-11-09T03:55:45.612Z,100070.75
2022-11-09T03:56:47.923Z,100067.16
2022-11-09T03:57:52.367Z,100068.81
2022-11-09T03:58:57.912Z,100073.84
2022-11-09T04:00:00.628Z,100069.22
2022-11-09T04:01:03.231Z,100075.09
2022-11-09T04:02:05.693Z,100066.72
2022-11-09T04:03:07.844Z,100073.41
2022-11-09T04:04:10.295Z,100074.66
2022-11-09T04:05:12.501Z,100069.16
2022-11-09T04:06:14.451Z,100070.00
2022-11-09T04:07:17.978Z,100074.34
2022-11-09T04:08:20.177Z,100066.66
2022-11-09T04:09:22.973Z,100068.66
2022-11-09T04:10:26.584Z,100062.81
2022-11-09T04:11:28.579Z,100070.03
2022-11-09T04:12:30.720Z,100065.34
2022-11-09T04:13:32.942Z,100065.28
2022-11-09T04:14:35.173Z,100061.94
2022-11-09T04:15:37.216Z,100063.00
2022-11-09T04:16:39.493Z,100066.19
2022-11-09T04:17:41.475Z,100071.81
2022-11-09T04:18:43.987Z,100080.31
2022-11-09T04:19:45.997Z,100082.69
2022-11-09T04:20:47.946Z,100079.63
2022-11-09T04:21:52.260Z,100078.41
2022-11-09T04:23:01.162Z,100088.03
2022-11-09T04:24:04.993Z,100084.56
2022-11-09T04:25:07.211Z,100079.09
2022-11-09T04:26:09.348Z,100078.38
2022-11-09T04:27:11.483Z,100079.47
2022-11-09T04:28:13.702Z,100083.06
2022-11-09T04:29:15.725Z,100088.31
2022-11-09T04:30:17.695Z,100083.16
2022-11-09T04:31:24.245Z,100087.63
2022-11-09T04:32:32.027Z,100080.50
2022-11-09T04:33:34.078Z,100083.66
2022-11-09T04:34:37.838Z,100084.47
2022-11-09T04:35:39.940Z,100087.25
2022-11-09T04:36:42.106Z,100082.56
2022-11-09T04:37:44.213Z,100079.84
2022-11-09T04:38:46.865Z,100079.38
2022-11-09T04:39:48.853Z,100078.25
2022-11-09T04:40:50.942Z,100082.94
2022-11-09T04:41:53.114Z,100082.94
2022-11-09T04:42:55.416Z,100083.75
2022-11-09T04:43:59.507Z,100077.16
2022-11-09T04:45:02.854Z,100073.97
2022-11-09T04:46:05.882Z,100083.47
2022-11-09T04:47:07.942Z,100079.19
2022-11-09T04:48:11.126Z,100079.59
2022-11-09T04:49:13.482Z,100083.75
2022-11-09T04:50:16.648Z,100087.28
2022-11-09T04:51:18.705Z,100082.59
2022-11-09T04:52:20.710Z,100088.16
2022-11-09T04:53:22.787Z,100080.75
2022-11-09T04:54:27.260Z,100085.56
2022-11-09T04:55:29.357Z,100084.78
2022-11-09T04:56:31.320Z,100086.81
2022-11-09T04:57:34.235Z,100085.22
2022-11-09T04:58:36.599Z,100088.78
2022-11-09T04:59:39.402Z,100077.75
2022-11-09T05:00:41.403Z,100082.00
2022-11-09T05:01:43.365Z,100083.63
2022-11-09T05:02:45.227Z,100089.81
2022-11-09T05:03:47.304Z,100086.38
2022-11-09T05:04:49.408Z,100087.97
2022-11-09T05:05:51.492Z,100086.81
2022-11-09T05:06:53.441Z,100087.94
2022-11-09T05:07:55.790Z,100091.03
2022-11-09T05:08:58.981Z,100088.78
2022-11-09T05:10:01.003Z,100094.38
2022-11-09T05:11:05.554Z,100091.25
2022-11-09T05:12:07.638Z,100092.75
2022-11-09T05:13:12.696Z,100090.50
2022-11-09T05:14:14.740Z,100094.41
2022-11-09T05:15:16.984Z,100092.00
2022-11-09T05:16:19.793Z,100092.84
2022-11-09T05:17:21.974Z,100098.69
2022-11-09T05:18:26.262Z,100098.25
2022-11-09T05:19:29.329Z,100100.66
2022-11-09T05:20:31.627Z,100104.09
2022-11-09T05:21:33.628Z,100094.91
2022-11-09T05:22:58.716Z,100098.97
2022-11-09T05:24:00.825Z,100103.72
2022-11-09T05:25:03.151Z,100106.81
2022-11-09T05:26:06.711Z,100105.72
2022-11-09T05:27:08.842Z,100107.56
2022-11-09T05:28:11.611Z,100107.59
2022-11-09T05:29:13.991Z,100099.78
2022-11-09T05:30:16.122Z,100101.44
2022-11-09T05:31:18.223Z,100102.25
2022-11-09T05:32:20.885Z,100101.16
2022-11-09T05:33:24.223Z,100104.25
2022-11-09T05:34:26.824Z,100100.38
2022-11-09T05:35:32.352Z,100112.94
2022-11-09T05:36:34.595Z,100114.97
2022-11-09T05:37:39.210Z,100113.03
2022-11-09T05:38:41.328Z,100105.44
2022-11-09T05:39:43.331Z,100109.44
2022-11-09T05:40:48.608Z,100110.66
2022-11-09T05:41:50.893Z,100111.88
2022-11-09T05:42:53.531Z,100104.75
2022-11-09T05:43:55.626Z,100111.13
2022-11-09T05:44:58.163Z,100111.63
2022-11-09T05:46:07.269Z,100108.00
2022-11-09T05:47:09.297Z,100114.72
2022-11-09T05:48:16.536Z,100108.75
2022-11-09T05:49:18.578Z,100100.16
2022-11-09T05:50:20.631Z,100108.06
2022-11-09T05:51:30.290Z,100107.16
2022-11-09T05:52:32.255Z,100104.94
2022-11-09T05:53:34.471Z,100104.56
2022-11-09T05:54:36.432Z,100100.97
2022-11-09T05:55:39.682Z,100101.41
2022-11-09T05:56:41.714Z,100101.16
2022-11-09T05:57:43.671Z,100104.94
2022-11-09T05:58:45.662Z,100101.50
2022-11-09T05:59:47.864Z,100092.50
2022-11-09T06:00:49.846Z,100099.69
2022-11-09T06:01:52.066Z,100097.34
2022-11-09T06:02:54.331Z,100104.19
2022-11-09T06:03:56.242Z,100100.34
2022-11-09T06:04:59.489Z,100108.63
2022-11-09T06:06:08.881Z,100104.69
2022-11-09T06:07:11.461Z,100110.63
2022-11-09T06:08:15.634Z,100104.03
2022-11-09T06:09:18.673Z,100095.22
2022-11-09T06:10:20.794Z,100104.69
2022-11-09T06:11:24.322Z,100111.47
2022-11-09T06:12:28.627Z,100104.75
2022-11-09T06:13:31.165Z,100101.50
2022-11-09T06:14:33.358Z,100104.75
2022-11-09T06:15:36.707Z,100107.16
2022-11-09T06:16:38.676Z,100110.44
2022-11-09T06:17:40.627Z,100107.81
2022-11-09T06:18:42.682Z,100102.34
2022-11-09T06:19:44.874Z,100105.13
2022-11-09T06:20:47.083Z,100106.34
2022-11-09T06:21:49.138Z,100100.63
2022-11-09T06:23:03.143Z,100103.13
2022-11-09T06:24:06.421Z,100112.09
2022-11-09T06:25:08.739Z,100104.69
2022-11-09T06:26:12.514Z,100113.41
2022-11-09T06:27:14.731Z,100116.53
2022-11-09T06:28:17.167Z,100119.31
2022-11-09T06:29:20.183Z,100120.47
2022-11-09T06:30:23.458Z,100121.25
2022-11-09T06:31:25.447Z,100117.31
2022-11-09T06:32:28.427Z,100115.44
2022-11-09T06:33:32.238Z,100121.41
2022-11-09T06:34:34.303Z,100123.66
2022-11-09T06:35:36.245Z,100118.19
2022-11-09T06:36:38.254Z,100124.06
2022-11-09T06:37:40.345Z,100118.22
2022-11-09T06:38:42.730Z,100121.44
2022-11-09T06:39:45.544Z,100128.19
2022-11-09T06:40:51.458Z,100126.56
2022-11-09T06:41:53.622Z,100125.69
2022-11-09T06:43:00.647Z,100127.72
2022-11-09T06:44:02.838Z,100124.63
2022-11-09T06:45:05.389Z,100123.03
2022-11-09T06:46:08.149Z,100132.50
2022-11-09T06:47:10.267Z,100133.31
2022-11-09T06:48:12.688Z,100127.41
2022-11-09T06:49:14.755Z,100128.63
2022-11-09T06:50:17.709Z,100127.78
2022-11-09T06:51:19.818Z,100129.78
2022-11-09T06:52:21.848Z,100127.03
2022-11-09T06:53:24.247Z,100131.63
2022-11-09T06:54:33.759Z,100132.41
2022-11-09T06:55:39.101Z,100135.66
2022-11-09T06:56:41.058Z,100138.84
2022-11-09T06:57:43.664Z,100141.34
2022-11-09T06:58:52.907Z,100138.53
2022-11-09T06:59:54.966Z,100136.09
2022-11-09T07:01:03.351Z,100133.31
2022-11-09T07:02:05.422Z,100140.91
2022-11-09T07:03:07.471Z,100136.56
2022-11-09T07:04:14.280Z,100142.84
2022-11-09T07:05:19.771Z,100144.34
2022-11-09T07:06:24.594Z,100142.75
2022-11-09T07:07:28.345Z,100142.72
2022-11-09T07:08:30.562Z,100146.28
2022-11-09T07:09:33.222Z,100136.88
2022-11-09T07:10:36.847Z,100150.28
2022-11-09T07:11:39.267Z,100148.38
2022-11-09T07:12:42.424Z,100147.94
2022-11-09T07:13:44.786Z,100161.00
2022-11-09T07:14:46.725Z,100152.72
2022-11-09T07:15:55.024Z,100152.38
2022-11-09T07:16:58.447Z,100149.94
2022-11-09T07:18:02.007Z,100163.38
2022-11-09T07:19:04.002Z,100166.59
2022-11-09T07:20:10.773Z,100165.84
2022-11-09T07:21:15.092Z,100163.94
2022-11-09T07:22:17.946Z,100169.38
2022-11-09T07:23:20.801Z,100163.47
2022-11-09T07:24:23.687Z,100165.91
2022-11-09T07:25:27.512Z,100159.47
2022-11-09T07:26:29.931Z,100167.38
2022-11-09T07:27:31.936Z,100166.13
2022-11-09T07:28:34.076Z,100179.06
2022-11-09T07:29:36.058Z,100174.28
2022-11-09T07:30:38.737Z,100178.66
2022-11-09T07:31:40.771Z,100173.47
2022-11-09T07:34:06.368Z,100173.59
2022-11-09T07:35:09.958Z,100177.31
2022-11-09T07:36:14.612Z,100177.00
2022-11-09T07:37:23.059Z,100182.94
2022-11-09T07:38:29.114Z,100174.63
2022-11-09T07:39:33.694Z,100177.75
2022-11-09T07:40:36.448Z,100175.28
2022-11-09T07:41:40.793Z,100170.59
2022-11-09T07:42:42.773Z,100181.56
2022-11-09T07:43:45.243Z,100184.72
2022-11-09T07:44:48.392Z,100176.94
2022-11-09T07:45:50.748Z,100180.03
2022-11-09T07:46:52.839Z,100177.31
2022-11-09T07:47:59.065Z,100180.13
2022-11-09T07:49:01.537Z,100177.75
2022-11-09T07:50:07.066Z,100182.53
2022-11-09T07:51:09.312Z,100177.78
2022-11-09T07:52:11.233Z,100180.16
2022-11-09T07:53:15.176Z,100177.72
2022-11-09T07:54:17.138Z,100181.22
2022-11-09T07:55:19.517Z,100182.03
2022-11-09T07:56:21.489Z,100183.22
2022-11-09T07:57:24.700Z,100182.81
2022-11-09T07:58:26.727Z,100183.72
2022-11-09T07:59:28.828Z,100191.22
2022-11-09T08:00:32.637Z,100183.97
2022-11-09T08:01:35.052Z,100191.94
2022-11-09T08:02:37.198Z,100188.81
2022-11-09T08:03:39.220Z,100190.03
2022-11-09T08:04:41.268Z,100191.38
2022-11-09T08:05:43.459Z,100192.94
2022-11-09T08:06:45.816Z,100191.88
2022-11-09T08:07:48.041Z,100192.69
2022-11-09T08:08:50.147Z,100192.00
2022-11-09T08:09:52.189Z,100187.56
2022-11-09T08:10:57.072Z,100187.13
2022-11-09T08:11:59.032Z,100194.16
2022-11-09T08:13:04.006Z,100196.25
2022-11-09T08:14:07.149Z,100195.75
2022-11-09T08:15:11.994Z,100192.63
2022-11-09T08:16:14.297Z,100198.56
2022-11-09T08:17:16.568Z,100196.09
2022-11-09T08:18:20.981Z,100191.78
2022-11-09T08:19:23.163Z,100192.56
2022-11-09T08:20:28.062Z,100195.72
2022-11-09T08:21:30.062Z,100189.38
2022-11-09T08:22:32.202Z,100192.63
2022-11-09T08:23:36.007Z,100193.75
2022-11-09T08:24:38.234Z,100193.50
2022-11-09T08:25:41.554Z,100199.41
2022-11-09T08:26:43.515Z,100189.09
2022-11-09T08:27:46.454Z,100193.06
2022-11-09T08:28:48.642Z,100188.75
2022-11-09T08:29:50.664Z,100196.31
2022-11-09T08:30:58.047Z,100188.00
2022-11-09T08:32:00.262Z,100190.44
2022-11-09T08:33:03.710Z,100188.81
2022-11-09T08:34:05.928Z,100195.88
2022-11-09T08:35:12.801Z,100188.81
2022-11-09T08:36:17.382Z,100188.16
2022-11-09T08:37:19.580Z,100190.53
2022-11-09T08:38:22.361Z,100185.03
2022-11-09T08:39:24.676Z,100182.53
2022-11-09T08:40:26.928Z,100188.16
2022-11-09T08:41:29.300Z,100184.22
2022-11-09T08:42:32.613Z,100186.63
2022-11-09T08:43:35.253Z,100186.25
2022-11-09T08:44:37.171Z,100185.91
2022-11-09T08:45:41.171Z,100186.69
2022-11-09T08:46:43.379Z,100185.84
2022-11-09T08:47:46.871Z,100179.56
2022-11-09T08:48:48.806Z,100187.44
2022-11-09T08:49:50.837Z,100185.41
2022-11-09T08:50:56.068Z,100189.81
2022-11-09T08:51:59.269Z,100177.81
2022-11-09T08:53:02.445Z,100175.09
2022-11-09T08:54:04.606Z,100181.91
2022-11-09T08:55:08.903Z,100186.63
2022-11-09T08:56:18.559Z,100186.22
2022-11-09T08:57:23.457Z,100186.63
2022-11-09T08:58:27.512Z,100177.75
2022-11-09T08:59:29.834Z,100188.97
2022-11-09T09:00:31.978Z,100180.69
2022-11-09T09:01:38.473Z,100183.50
2022-11-09T09:02:40.715Z,100188.06
2022-11-09T09:03:42.906Z,100176.66
2022-11-09T09:04:45.147Z,100177.09
2022-11-09T09:05:47.395Z,100177.78
2022-11-09T09:06:49.687Z,100170.28
2022-11-09T09:07:51.861Z,100179.34
2022-11-09T09:08:53.999Z,100166.81
2022-11-09T09:09:57.296Z,100172.78
2022-11-09T09:11:06.274Z,100176.16
2022-11-09T09:12:10.564Z,100177.41
2022-11-09T09:13:12.605Z,100169.16
2022-11-09T09:14:15.858Z,100172.34
2022-11-09T09:15:17.912Z,100170.75
2022-11-09T09:16:19.962Z,100167.56
2022-11-09T09:17:21.981Z,100160.25
2022-11-09T09:18:24.555Z,100170.25
2022-11-09T09:19:26.643Z,100175.34
2022-11-09T09:20:29.250Z,100172.94
2022-11-09T09:21:31.436Z,100175.47
2022-11-09T09:22:35.857Z,100178.09
2022-11-09T09:23:39.075Z,100179.28
2022-11-09T09:24:41.347Z,100178.84
2022-11-09T09:25:44.100Z,100178.56
2022-11-09T09:26:46.410Z,100172.13
2022-11-09T09:27:48.511Z,100176.97
2022-11-09T09:28:51.822Z,100177.25
2022-11-09T09:29:54.014Z,100176.84
2022-11-09T09:30:59.839Z,100177.00
2022-11-09T09:32:01.799Z,100180.09
2022-11-09T09:33:03.950Z,100177.69
2022-11-09T09:34:08.583Z,100182.09
2022-11-09T09:35:10.602Z,100178.25
2022-11-09T09:36:18.337Z,100179.41
2022-11-09T09:37:20.331Z,100184.94
2022-11-09T09:38:22.775Z,100181.78
2022-11-09T09:39:25.022Z,100181.00
2022-11-09T09:40:37.160Z,100182.59
2022-11-09T09:42:01.475Z,100179.03
2022-11-09T09:43:05.314Z,100181.09
2022-11-09T09:44:14.313Z,100174.63
2022-11-09T09:45:21.194Z,100177.88
2022-11-09T09:46:38.015Z,100184.94
2022-11-09T09:48:02.756Z,100183.28
2022-11-09T09:49:14.818Z,100184.19
2022-11-09T09:50:27.113Z,100182.25
2022-11-09T09:51:34.718Z,100185.81
2022-11-09T09:53:25.477Z,100183.13
2022-11-09T09:54:30.301Z,100186.69
2022-11-09T09:55:32.164Z,100180.78
2022-11-09T09:56:40.649Z,100187.53
2022-11-09T09:57:47.950Z,100181.16
2022-11-09T09:58:58.204Z,100180.34
2022-11-09T10:00:08.418Z,100183.50
2022-11-09T10:01:50.888Z,100182.63
2022-11-09T10:02:54.175Z,100174.81
2022-11-09T10:03:56.902Z,100177.19
2022-11-09T10:05:01.871Z,100178.59
2022-11-09T10:06:09.507Z,100179.06
2022-11-09T10:07:36.277Z,100183.47
2022-11-09T10:08:54.613Z,100179.44
2022-11-09T10:10:08.915Z,100185.25
2022-11-09T10:11:50.251Z,100186.91
2022-11-09T10:13:20.183Z,100180.16
2022-11-09T10:14:42.868Z,100189.72
2022-11-09T10:15:57.165Z,100191.72
2022-11-09T10:17:14.710Z,100185.03
2022-11-09T10:18:30.712Z,100186.91
2022-11-09T10:19:51.387Z,100192.00
2022-11-09T10:21:10.499Z,100186.88
2022-11-09T10:22:45.874Z,100190.50
2022-11-09T10:24:04.768Z,100190.34
2022-11-09T10:25:27.387Z,100190.41
2022-11-09T10:26:51.467Z,100185.69
2022-11-09T10:28:02.577Z,100181.69
2022-11-09T10:29:26.183Z,100191.09
2022-11-09T10:30:30.464Z,100182.47
2022-11-09T10:31:34.779Z,100187.66
2022-11-09T10:32:36.963Z,100183.22
2022-11-09T10:33:39.332Z,100182.38
2022-11-09T10:34:53.239Z,100178.44
2022-11-09T10:36:33.270Z,100180.94
2022-11-09T10:37:40.724Z,100184.81
2022-11-09T10:38:47.255Z,100179.41
2022-11-09T10:40:19.060Z,100183.31
2022-11-09T10:41:44.389Z,100182.91
2022-11-09T10:43:13.973Z,100174.63
2022-11-09T10:44:34.860Z,100174.63
2022-11-09T10:46:05.180Z,100171.47
2022-11-09T10:47:26.619Z,100173.38
2022-11-09T10:48:46.978Z,100180.13
2022-11-09T10:50:14.795Z,100184.69
2022-11-09T10:51:41.254Z,100179.97
2022-11-09T10:53:11.322Z,100180.91
2022-11-09T10:54:35.481Z,100185.34
2022-11-09T10:56:04.953Z,100178.91
2022-11-09T10:57:26.061Z,100184.75
2022-11-09T10:58:52.023Z,100175.41
2022-11-09T11:00:19.881Z,100174.63
2022-11-09T11:01:40.649Z,100184.81
2022-11-09T11:03:12.070Z,100178.53
2022-11-09T11:04:33.194Z,100175.41
2022-11-09T11:06:03.318Z,100184.19
2022-11-09T11:07:25.413Z,100180.94
2022-11-09T11:08:49.277Z,100192.09
2022-11-09T11:10:16.197Z,100191.19
2022-11-09T11:11:39.151Z,100191.16
2022-11-09T11:13:02.327Z,100192.03
2022-11-09T11:14:27.867Z,100186.16
2022-11-09T11:15:49.385Z,100188.19
2022-11-09T11:17:35.189Z,100191.22
2022-11-09T11:18:57.013Z,100191.94
2022-11-09T11:20:33.913Z,100192.78
2022-11-09T11:22:12.663Z,100189.44
2022-11-09T11:23:37.020Z,100187.13
2022-11-09T11:25:10.131Z,100184.03
2022-11-09T11:27:10.387Z,100180.03
2022-11-09T11:28:49.402Z,100181.63
2022-11-09T11:30:10.606Z,100183.66
2022-11-09T11:31:31.367Z,100180.94
2022-11-09T11:32:52.256Z,100183.31
2022-11-09T11:34:32.150Z,100184.88
2022-11-09T11:36:03.958Z,100179.78
2022-11-09T11:38:01.254Z,100180.16
2022-11-09T11:39:31.205Z,100180.13
2022-11-09T11:41:13.003Z,100189.06
2022-11-09T11:42:51.967Z,100191.19
2022-11-09T11:45:26.054Z,100195.00
2022-11-09T11:46:47.415Z,100186.00
2022-11-09T11:48:28.273Z,100192.00
2022-11-09T11:49:56.672Z,100189.66
2022-11-09T11:51:47.294Z,100188.81
2022-11-09T11:53:10.335Z,100185.69
2022-11-09T11:55:07.797Z,100185.66
2022-11-09T11:56:47.511Z,100194.44
2022-11-09T11:58:30.277Z,100190.44
2022-11-09T11:59:53.307Z,100194.44
2022-11-09T12:01:35.623Z,100191.22
2022-11-09T12:03:21.045Z,100192.25
2022-11-09T12:04:48.179Z,100191.19
2022-11-09T12:06:30.661Z,100192.75
2022-11-09T12:08:18.687Z,100181.56
2022-11-09T12:09:49.385Z,100188.03
2022-11-09T12:11:31.544Z,100183.31
2022-11-09T12:13:06.823Z,100187.66
2022-11-09T12:14:29.711Z,100191.22
2022-11-09T12:16:04.504Z,100189.78
2022-11-09T12:17:43.783Z,100185.03
2022-11-09T12:19:27.694Z,100191.41
2022-11-09T12:21:24.432Z,100181.94
2022-11-09T12:22:53.586Z,100187.38
2022-11-09T12:24:24.176Z,100188.97
2022-11-09T12:26:24.078Z,100196.09
2022-11-09T12:28:08.538Z,100192.91
2022-11-09T12:29:56.917Z,100192.16
2022-11-09T12:31:54.727Z,100199.22
2022-11-09T12:33:44.430Z,100186.88
2022-11-09T12:35:11.329Z,100193.59
2022-11-09T12:36:53.488Z,100193.53
2022-11-09T12:38:36.892Z,100193.59
2022-11-09T12:40:21.313Z,100200.66
2022-11-09T12:41:43.599Z,100194.44
2022-11-09T12:43:27.407Z,100194.06
2022-11-09T12:45:12.667Z,100191.38
2022-11-09T12:46:40.143Z,100192.91
2022-11-09T12:48:31.107Z,100190.56
2022-11-09T12:49:51.824Z,100195.31
2022-11-09T12:51:12.451Z,100195.53
2022-11-09T12:52:33.206Z,100196.38
2022-11-09T12:53:56.522Z,100193.66
2022-11-09T12:55:21.595Z,100191.97
2022-11-09T12:56:55.671Z,100191.69
2022-11-09T12:58:26.460Z,100194.00
2022-11-09T12:59:55.488Z,100189.94
2022-11-09T13:01:34.619Z,100196.34
2022-11-09T13:02:58.106Z,100196.84
2022-11-09T13:04:21.217Z,100197.53
2022-11-09T13:05:43.309Z,100199.84
2022-11-09T13:07:07.315Z,100190.91
2022-11-09T13:08:31.582Z,100202.31